sensor_id;sensor_type;location;lat;lon;timestamp;pressure;altitude;pressure_sealevel;temperature;humidity
31483;BME280;18103;52.246;8.052;2023-11-21T00:02:13;99766.00;;;7.85;100.00
31483;BME280;18103;52.246;8.052;2023-11-21T00:04:38;99767.53;;;7.87;100.00
31483;BME280;18103;52.246;8.052;2023-11-21T00:07:04;99760.88;;;7.95;100.00
31483;BME280;18103;52.246;8.052;2023-11-21T00:09:31;99775.56;;;7.86;100.00
31483;BME280;18103;52.246;8.052;2023-11-21T00:11:56;99769.22;;;7.88;100.00
31483;BME280;18103;52.246;8.052;2023-11-21T00:14:22;99777.97;;;8.00;100.00
31483;BME280;18103;52.246;8.052;2023-11-21T00:16:47;99778.56;;;7.93;100.00
31483;BME280;18103;52.246;8.052;2023-11-21T00:19:12;99783.31;;;7.87;100.00
31483;BME280;18103;52.246;8.052;2023-11-21T00:21:40;99782.50;;;7.98;100.00
31483;BME280;18103;52.246;8.052;2023-11-21T00:24:11;99785.88;;;8.00;100.00
31483;BME280;18103;52.246;8.052;2023-11-21T00:26:39;99790.75;;;8.05;100.00
31483;BME280;18103;52.246;8.052;2023-11-21T00:29:07;99796.63;;;8.09;100.00
31483;BME280;18103;52.246;8.052;2023-11-21T00:31:36;99790.75;;;8.16;100.00
31483;BME280;18103;52.246;8.052;2023-11-21T00:34:04;99794.34;;;8.15;100.00
31483;BME280;18103;52.246;8.052;2023-11-21T00:36:31;99793.03;;;8.10;100.00
31483;BME280;18103;52.246;8.052;2023-11-21T00:38:57;99791.13;;;8.12;100.00
31483;BME280;18103;52.246;8.052;2023-11-21T00:41:27;99799.84;;;8.12;100.00
31483;BME280;18103;52.246;8.052;2023-11-21T00:43:53;99798.66;;;8.16;100.00
31483;BME280;18103;52.246;8.052;2023-11-21T00:46:21;99795.53;;;8.22;100.00
31483;BME280;18103;52.246;8.052;2023-11-21T00:48:49;99803.53;;;8.21;100.00
31483;BME280;18103;52.246;8.052;2023-11-21T00:51:14;99794.94;;;8.19;100.00
31483;BME280;18103;52.246;8.052;2023-11-21T00:53:40;99801.16;;;8.18;100.00
31483;BME280;18103;52.246;8.052;2023-11-21T00:56:05;99799.47;;;8.17;100.00
31483;BME280;18103;52.246;8.052;2023-11-21T00:58:34;99802.72;;;8.09;100.00
31483;BME280;18103;52.246;8.052;2023-11-21T01:00:59;99799.84;;;8.12;100.00
31483;BME280;18103;52.246;8.052;2023-11-21T01:03:24;99797.44;;;8.09;100.00
31483;BME280;18103;52.246;8.052;2023-11-21T01:05:52;99798.53;;;8.18;100.00
31483;BME280;18103;52.246;8.052;2023-11-21T01:08:18;99804.63;;;8.18;100.00
31483;BME280;18103;52.246;8.052;2023-11-21T01:10:46;99814.06;;;8.21;100.00
31483;BME280;18103;52.246;8.052;2023-11-21T01:13:12;99810.84;;;8.29;100.00
31483;BME280;18103;52.246;8.052;2023-11-21T01:15:40;99807.28;;;8.30;100.00
31483;BME280;18103;52.246;8.052;2023-11-21T01:18:06;99807.03;;;8.33;100.00
31483;BME280;18103;52.246;8.052;2023-11-21T01:20:32;99804.50;;;8.43;100.00
31483;BME280;18103;52.246;8.052;2023-11-21T01:22:58;99802.84;;;8.42;100.00
31483;BME280;18103;52.246;8.052;2023-11-21T01:25:25;99810.13;;;8.38;100.00
31483;BME280;18103;52.246;8.052;2023-11-21T01:27:51;99825.44;;;8.33;100.00
31483;BME280;18103;52.246;8.052;2023-11-21T01:30:19;99827.94;;;8.34;100.00
31483;BME280;18103;52.246;8.052;2023-11-21T01:32:47;99824.22;;;8.26;100.00
31483;BME280;18103;52.246;8.052;2023-11-21T01:35:16;99820.88;;;8.23;100.00
31483;BME280;18103;52.246;8.052;2023-11-21T01:37:41;99830.56;;;8.23;100.00
31483;BME280;18103;52.246;8.052;2023-11-21T01:40:08;99823.97;;;8.17;100.00
31483;BME280;18103;52.246;8.052;2023-11-21T01:42:36;99825.19;;;8.13;100.00
31483;BME280;18103;52.246;8.052;2023-11-21T01:45:01;99824.13;;;8.27;100.00
31483;BME280;18103;52.246;8.052;2023-11-21T01:47:30;99831.50;;;8.22;100.00
31483;BME280;18103;52.246;8.052;2023-11-21T01:49:56;99830.69;;;8.21;100.00
31483;BME280;18103;52.246;8.052;2023-11-21T01:52:21;99831.63;;;8.20;100.00
31483;BME280;18103;52.246;8.052;2023-11-21T01:54:47;99837.25;;;8.27;100.00
31483;BME280;18103;52.246;8.052;2023-11-21T01:57:14;99837.72;;;8.21;100.00
31483;BME280;18103;52.246;8.052;2023-11-21T01:59:44;99840.59;;;8.29;100.00
31483;BME280;18103;52.246;8.052;2023-11-21T02:02:11;99848.25;;;8.32;100.00
31483;BME280;18103;52.246;8.052;2023-11-21T02:04:37;99846.84;;;8.39;100.00
31483;BME280;18103;52.246;8.052;2023-11-21T02:07:03;99850.16;;;8.42;100.00
31483;BME280;18103;52.246;8.052;2023-11-21T02:09:33;99851.72;;;8.44;100.00
31483;BME280;18103;52.246;8.052;2023-11-21T02:11:59;99850.88;;;8.32;100.00
31483;BME280;18103;52.246;8.052;2023-11-21T02:14:26;99854.72;;;8.39;100.00
31483;BME280;18103;52.246;8.052;2023-11-21T02:16:54;99871.31;;;8.29;100.00
31483;BME280;18103;52.246;8.052;2023-11-21T02:19:22;99869.19;;;8.34;100.00
31483;BME280;18103;52.246;8.052;2023-11-21T02:21:51;99863.09;;;8.45;100.00
31483;BME280;18103;52.246;8.052;2023-11-21T02:24:19;99868.00;;;8.38;100.00
31483;BME280;18103;52.246;8.052;2023-11-21T02:26:50;99868.44;;;8.32;100.00
31483;BME280;18103;52.246;8.052;2023-11-21T02:29:19;99871.22;;;8.42;100.00
31483;BME280;18103;52.246;8.052;2023-11-21T02:31:51;99869.53;;;8.40;100.00
31483;BME280;18103;52.246;8.052;2023-11-21T02:34:17;99869.09;;;8.47;100.00
31483;BME280;18103;52.246;8.052;2023-11-21T02:36:46;99873.50;;;8.46;100.00
31483;BME280;18103;52.246;8.052;2023-11-21T02:39:14;99874.25;;;8.48;100.00
31483;BME280;18103;52.246;8.052;2023-11-21T02:41:43;99873.41;;;8.59;100.00
31483;BME280;18103;52.246;8.052;2023-11-21T02:44:09;99873.03;;;8.52;100.00
31483;BME280;18103;52.246;8.052;2023-11-21T02:46:38;99874.94;;;8.50;100.00
31483;BME280;18103;52.246;8.052;2023-11-21T02:49:06;99876.75;;;8.50;100.00
31483;BME280;18103;52.246;8.052;2023-11-21T02:51:36;99869.81;;;8.49;100.00
31483;BME280;18103;52.246;8.052;2023-11-21T02:54:04;99873.84;;;8.42;100.00
31483;BME280;18103;52.246;8.052;2023-11-21T02:56:34;99879.75;;;8.45;100.00
31483;BME280;18103;52.246;8.052;2023-11-21T02:59:02;99870.25;;;8.43;100.00
31483;BME280;18103;52.246;8.052;2023-11-21T03:01:27;99872.16;;;8.40;100.00
31483;BME280;18103;52.246;8.052;2023-11-21T03:03:53;99869.19;;;8.34;100.00
31483;BME280;18103;52.246;8.052;2023-11-21T03:06:20;99865.63;;;8.46;100.00
31483;BME280;18103;52.246;8.052;2023-11-21T03:08:46;99873.34;;;8.36;100.00
31483;BME280;18103;52.246;8.052;2023-11-21T03:11:12;99877.53;;;8.39;100.00
31483;BME280;18103;52.246;8.052;2023-11-21T03:13:43;99885.78;;;8.34;100.00
31483;BME280;18103;52.246;8.052;2023-11-21T03:16:11;99883.16;;;8.34;100.00
31483;BME280;18103;52.246;8.052;2023-11-21T03:18:42;99881.72;;;8.42;100.00
31483;BME280;18103;52.246;8.052;2023-11-21T03:21:12;99880.91;;;8.41;100.00
31483;BME280;18103;52.246;8.052;2023-11-21T03:23:38;99883.41;;;8.43;100.00
31483;BME280;18103;52.246;8.052;2023-11-21T03:26:04;99883.19;;;8.46;100.00
31483;BME280;18103;52.246;8.052;2023-11-21T03:28:29;99894.28;;;8.38;100.00
31483;BME280;18103;52.246;8.052;2023-11-21T03:30:57;99897.19;;;8.46;100.00
31483;BME280;18103;52.246;8.052;2023-11-21T03:33:23;99898.97;;;8.46;100.00
31483;BME280;18103;52.246;8.052;2023-11-21T03:35:50;99898.16;;;8.45;100.00
31483;BME280;18103;52.246;8.052;2023-11-21T03:38:18;99900.00;;;8.32;100.00
31483;BME280;18103;52.246;8.052;2023-11-21T03:40:44;99904.91;;;8.36;100.00
31483;BME280;18103;52.246;8.052;2023-11-21T03:43:09;99909.84;;;8.41;100.00
31483;BME280;18103;52.246;8.052;2023-11-21T03:45:37;99916.84;;;8.29;100.00
31483;BME280;18103;52.246;8.052;2023-11-21T03:48:03;99918.91;;;8.37;100.00
31483;BME280;18103;52.246;8.052;2023-11-21T03:50:29;99913.81;;;8.47;100.00
31483;BME280;18103;52.246;8.052;2023-11-21T03:52:56;99923.97;;;8.51;100.00
31483;BME280;18103;52.246;8.052;2023-11-21T03:55:22;99924.22;;;8.48;100.00
31483;BME280;18103;52.246;8.052;2023-11-21T03:57:49;99923.16;;;8.51;100.00
31483;BME280;18103;52.246;8.052;2023-11-21T04:00:15;99933.38;;;8.43;100.00
31483;BME280;18103;52.246;8.052;2023-11-21T04:02:41;99935.38;;;8.28;100.00
31483;BME280;18103;52.246;8.052;2023-11-21T04:05:09;99949.94;;;8.20;100.00
31483;BME280;18103;52.246;8.052;2023-11-21T04:07:35;99949.38;;;8.28;100.00
31483;BME280;18103;52.246;8.052;2023-11-21T04:10:07;99947.28;;;8.45;100.00
31483;BME280;18103;52.246;8.052;2023-11-21T04:12:36;99947.09;;;8.35;100.00
31483;BME280;18103;52.246;8.052;2023-11-21T04:15:02;99951.78;;;8.43;100.00
31483;BME280;18103;52.246;8.052;2023-11-21T04:17:27;99953.38;;;8.45;100.00
31483;BME280;18103;52.246;8.052;2023-11-21T04:19:52;99957.88;;;8.43;100.00
31483;BME280;18103;52.246;8.052;2023-11-21T04:22:18;99962.72;;;8.49;100.00
31483;BME280;18103;52.246;8.052;2023-11-21T04:24:46;99955.78;;;8.48;100.00
31483;BME280;18103;52.246;8.052;2023-11-21T04:27:17;99956.28;;;8.53;100.00
31483;BME280;18103;52.246;8.052;2023-11-21T04:29:45;99969.63;;;8.50;100.00
31483;BME280;18103;52.246;8.052;2023-11-21T04:32:12;99959.88;;;8.64;100.00
31483;BME280;18103;52.246;8.052;2023-11-21T04:34:38;99961.66;;;8.63;100.00
31483;BME280;18103;52.246;8.052;2023-11-21T04:37:06;99961.75;;;8.62;100.00
31483;BME280;18103;52.246;8.052;2023-11-21T04:39:35;99955.78;;;8.60;100.00
31483;BME280;18103;52.246;8.052;2023-11-21T04:42:01;99958.31;;;8.61;100.00
31483;BME280;18103;52.246;8.052;2023-11-21T04:44:29;99959.88;;;8.64;100.00
31483;BME280;18103;52.246;8.052;2023-11-21T04:46:54;99959.25;;;8.60;100.00
31483;BME280;18103;52.246;8.052;2023-11-21T04:49:22;99960.81;;;8.63;100.00
31483;BME280;18103;52.246;8.052;2023-11-21T04:51:50;99963.81;;;8.69;100.00
31483;BME280;18103;52.246;8.052;2023-11-21T04:54:15;99965.38;;;8.61;100.00
31483;BME280;18103;52.246;8.052;2023-11-21T04:56:43;99967.63;;;8.65;100.00
31483;BME280;18103;52.246;8.052;2023-11-21T04:59:09;99973.03;;;8.64;100.00
31483;BME280;18103;52.246;8.052;2023-11-21T05:01:34;99971.72;;;8.69;100.00
31483;BME280;18103;52.246;8.052;2023-11-21T05:04:01;99973.25;;;8.61;100.00
31483;BME280;18103;52.246;8.052;2023-11-21T05:06:31;99973.03;;;8.64;100.00
31483;BME280;18103;52.246;8.052;2023-11-21T05:08:56;99978.78;;;8.69;100.00
31483;BME280;18103;52.246;8.052;2023-11-21T05:11:26;99987.50;;;8.69;100.00
31483;BME280;18103;52.246;8.052;2023-11-21T05:13:54;99972.78;;;8.67;100.00
31483;BME280;18103;52.246;8.052;2023-11-21T05:16:21;99977.09;;;8.68;100.00
31483;BME280;18103;52.246;8.052;2023-11-21T05:18:47;99978.72;;;8.57;100.00
31483;BME280;18103;52.246;8.052;2023-11-21T05:21:12;99986.28;;;8.62;100.00
31483;BME280;18103;52.246;8.052;2023-11-21T05:23:40;99985.44;;;8.62;100.00
31483;BME280;18103;52.246;8.052;2023-11-21T05:26:06;99982.72;;;8.63;100.00
31483;BME280;18103;52.246;8.052;2023-11-21T05:28:31;99987.25;;;8.61;100.00
31483;BME280;18103;52.246;8.052;2023-11-21T05:30:59;99983.53;;;8.64;100.00
31483;BME280;18103;52.246;8.052;2023-11-21T05:33:27;99992.97;;;8.55;100.00
31483;BME280;18103;52.246;8.052;2023-11-21T05:35:55;99990.94;;;8.59;100.00
31483;BME280;18103;52.246;8.052;2023-11-21T05:38:21;99996.78;;;8.51;100.00
31483;BME280;18103;52.246;8.052;2023-11-21T05:40:51;100000.88;;;8.55;100.00
31483;BME280;18103;52.246;8.052;2023-11-21T05:43:19;99990.22;;;8.56;100.00
31483;BME280;18103;52.246;8.052;2023-11-21T05:45:45;100005.19;;;8.67;100.00
31483;BME280;18103;52.246;8.052;2023-11-21T05:48:10;100017.13;;;8.60;100.00
31483;BME280;18103;52.246;8.052;2023-11-21T05:50:35;100022.28;;;8.62;100.00
31483;BME280;18103;52.246;8.052;2023-11-21T05:53:03;100028.53;;;8.72;100.00
31483;BME280;18103;52.246;8.052;2023-11-21T05:55:28;100029.72;;;8.68;100.00
31483;BME280;18103;52.246;8.052;2023-11-21T05:58:01;100034.59;;;8.61;100.00
31483;BME280;18103;52.246;8.052;2023-11-21T06:00:26;100041.81;;;8.70;100.00
31483;BME280;18103;52.246;8.052;2023-11-21T06:02:53;100045.38;;;8.69;100.00
31483;BME280;18103;52.246;8.052;2023-11-21T06:05:20;100051.72;;;8.67;100.00
31483;BME280;18103;52.246;8.052;2023-11-21T06:07:49;100056.03;;;8.68;100.00
31483;BME280;18103;52.246;8.052;2023-11-21T06:10:14;100063.91;;;8.68;100.00
31483;BME280;18103;52.246;8.052;2023-11-21T06:12:40;100064.19;;;8.76;100.00
31483;BME280;18103;52.246;8.052;2023-11-21T06:15:11;100064.50;;;8.71;100.00
31483;BME280;18103;52.246;8.052;2023-11-21T06:17:40;100070.00;;;8.68;100.00
31483;BME280;18103;52.246;8.052;2023-11-21T06:20:08;100076.81;;;8.60;100.00
31483;BME280;18103;52.246;8.052;2023-11-21T06:22:41;100075.41;;;8.67;100.00
31483;BME280;18103;52.246;8.052;2023-11-21T06:25:07;100077.63;;;8.60;100.00
31483;BME280;18103;52.246;8.052;2023-11-21T06:27:38;100091.03;;;8.57;100.00
31483;BME280;18103;52.246;8.052;2023-11-21T06:30:07;100088.97;;;8.49;100.00
31483;BME280;18103;52.246;8.052;2023-11-21T06:32:35;100094.16;;;8.62;100.00
31483;BME280;18103;52.246;8.052;2023-11-21T06:35:01;100092.59;;;8.60;100.00
31483;BME280;18103;52.246;8.052;2023-11-21T06:37:27;100103.63;;;8.65;100.00
31483;BME280;18103;52.246;8.052;2023-11-21T06:39:53;100109.47;;;8.68;100.00
31483;BME280;18103;52.246;8.052;2023-11-21T06:42:22;100106.97;;;8.67;100.00
31483;BME280;18103;52.246;8.052;2023-11-21T06:44:50;100115.91;;;8.64;100.00
31483;BME280;18103;52.246;8.052;2023-11-21T06:47:22;100119.19;;;8.68;100.00
31483;BME280;18103;52.246;8.052;2023-11-21T06:49:50;100124.03;;;8.61;100.00
31483;BME280;18103;52.246;8.052;2023-11-21T06:52:19;100129.69;;;8.68;100.00
31483;BME280;18103;52.246;8.052;2023-11-21T06:54:47;100142.13;;;8.66;100.00
31483;BME280;18103;52.246;8.052;2023-11-21T06:57:15;100134.97;;;8.68;100.00
31483;BME280;18103;52.246;8.052;2023-11-21T06:59:41;100148.78;;;8.59;100.00
31483;BME280;18103;52.246;8.052;2023-11-21T07:02:07;100146.66;;;8.64;100.00
31483;BME280;18103;52.246;8.052;2023-11-21T07:04:35;100149.28;;;8.64;100.00
31483;BME280;18103;52.246;8.052;2023-11-21T07:07:02;100146.66;;;8.64;100.00
31483;BME280;18103;52.246;8.052;2023-11-21T07:09:27;100161.72;;;8.62;100.00
31483;BME280;18103;52.246;8.052;2023-11-21T07:11:53;100160.38;;;8.56;100.00
31483;BME280;18103;52.246;8.052;2023-11-21T07:14:22;100162.88;;;8.57;100.00
31483;BME280;18103;52.246;8.052;2023-11-21T07:16:47;100159.03;;;8.50;100.00
31483;BME280;18103;52.246;8.052;2023-11-21T07:19:13;100167.31;;;8.57;100.00
31483;BME280;18103;52.246;8.052;2023-11-21T07:21:38;100171.59;;;8.47;100.00
31483;BME280;18103;52.246;8.052;2023-11-21T07:24:09;100170.34;;;8.64;100.00
31483;BME280;18103;52.246;8.052;2023-11-21T07:26:36;100170.56;;;8.61;100.00
31483;BME280;18103;52.246;8.052;2023-11-21T07:29:02;100170.78;;;8.57;100.00
31483;BME280;18103;52.246;8.052;2023-11-21T07:31:31;100168.94;;;8.47;100.00
31483;BME280;18103;52.246;8.052;2023-11-21T07:33:59;100177.78;;;8.46;100.00
31483;BME280;18103;52.246;8.052;2023-11-21T07:36:25;100182.69;;;8.50;100.00
31483;BME280;18103;52.246;8.052;2023-11-21T07:38:53;100183.84;;;8.59;100.00
31483;BME280;18103;52.246;8.052;2023-11-21T07:41:19;100190.06;;;8.58;100.00
31483;BME280;18103;52.246;8.052;2023-11-21T07:43:45;100191.66;;;8.48;100.00
31483;BME280;18103;52.246;8.052;2023-11-21T07:46:13;100193.50;;;8.59;100.00
31483;BME280;18103;52.246;8.052;2023-11-21T07:48:39;100197.53;;;8.51;100.00
31483;BME280;18103;52.246;8.052;2023-11-21T07:51:11;100196.09;;;8.47;100.00
31483;BME280;18103;52.246;8.052;2023-11-21T07:53:38;100202.16;;;8.48;100.00
31483;BME280;18103;52.246;8.052;2023-11-21T07:56:05;100211.97;;;8.46;100.00
31483;BME280;18103;52.246;8.052;2023-11-21T07:58:30;100212.16;;;8.43;100.00
31483;BME280;18103;52.246;8.052;2023-11-21T08:00:58;100218.38;;;8.42;100.00
31483;BME280;18103;52.246;8.052;2023-11-21T08:03:23;100222.38;;;8.47;100.00
31483;BME280;18103;52.246;8.052;2023-11-21T08:05:49;100221.09;;;8.53;100.00
31483;BME280;18103;52.246;8.052;2023-11-21T08:08:14;100222.78;;;8.54;100.00
31483;BME280;18103;52.246;8.052;2023-11-21T08:10:44;100220.75;;;8.57;100.00
31483;BME280;18103;52.246;8.052;2023-11-21T08:13:27;100228.16;;;8.52;100.00
31483;BME280;18103;52.246;8.052;2023-11-21T08:15:56;100228.16;;;8.52;100.00
31483;BME280;18103;52.246;8.052;2023-11-21T08:18:23;100235.50;;;8.60;100.00
31483;BME280;18103;52.246;8.052;2023-11-21T08:20:51;100232.44;;;8.66;100.00
31483;BME280;18103;52.246;8.052;2023-11-21T08:23:17;100247.47;;;8.64;100.00
31483;BME280;18103;52.246;8.052;2023-11-21T08:25:45;100255.81;;;8.58;100.00
31483;BME280;18103;52.246;8.052;2023-11-21T08:28:11;100256.75;;;8.57;100.00
31483;BME280;18103;52.246;8.052;2023-11-21T08:30:36;100257.81;;;8.54;100.00
31483;BME280;18103;52.246;8.052;2023-11-21T08:33:02;100271.09;;;8.53;100.00
31483;BME280;18103;52.246;8.052;2023-11-21T08:35:31;100279.31;;;8.48;100.00
31483;BME280;18103;52.246;8.052;2023-11-21T08:37:59;100286.16;;;8.51;100.00
31483;BME280;18103;52.246;8.052;2023-11-21T08:40:24;100289.91;;;8.60;100.00
31483;BME280;18103;52.246;8.052;2023-11-21T08:42:52;100291.78;;;8.70;100.00
31483;BME280;18103;52.246;8.052;2023-11-21T08:45:20;100289.25;;;8.69;100.00
31483;BME280;18103;52.246;8.052;2023-11-21T08:47:46;100299.78;;;8.56;100.00
31483;BME280;18103;52.246;8.052;2023-11-21T08:50:11;100298.13;;;8.55;100.00
31483;BME280;18103;52.246;8.052;2023-11-21T08:52:38;100300.03;;;8.53;100.00
31483;BME280;18103;52.246;8.052;2023-11-21T08:55:04;100293.25;;;8.62;100.00
31483;BME280;18103;52.246;8.052;2023-11-21T08:57:36;100293.38;;;8.73;100.00
31483;BME280;18103;52.246;8.052;2023-11-21T09:00:06;100296.16;;;8.83;100.00
31483;BME280;18103;52.246;8.052;2023-11-21T09:02:37;100305.72;;;8.84;100.00
31483;BME280;18103;52.246;8.052;2023-11-21T09:05:06;100302.09;;;8.73;100.00
31483;BME280;18103;52.246;8.052;2023-11-21T09:07:32;100304.44;;;8.89;100.00
31483;BME280;18103;52.246;8.052;2023-11-21T09:10:00;100316.78;;;8.89;100.00
31483;BME280;18103;52.246;8.052;2023-11-21T09:12:27;100323.09;;;8.86;100.00
31483;BME280;18103;52.246;8.052;2023-11-21T09:14:53;100331.09;;;8.85;100.00
31483;BME280;18103;52.246;8.052;2023-11-21T09:17:19;100331.44;;;8.80;100.00
31483;BME280;18103;52.246;8.052;2023-11-21T09:19:44;100335.00;;;8.79;100.00
31483;BME280;18103;52.246;8.052;2023-11-21T09:22:12;100338.06;;;8.86;100.00
31483;BME280;18103;52.246;8.052;2023-11-21T09:24:37;100342.56;;;8.84;100.00
31483;BME280;18103;52.246;8.052;2023-11-21T09:27:03;100344.50;;;8.82;100.00
31483;BME280;18103;52.246;8.052;2023-11-21T09:29:30;100348.06;;;8.81;100.00
31483;BME280;18103;52.246;8.052;2023-11-21T09:31:55;100346.06;;;8.84;100.00
31483;BME280;18103;52.246;8.052;2023-11-21T09:34:24;100354.50;;;8.77;100.00
31483;BME280;18103;52.246;8.052;2023-11-21T09:36:53;100354.59;;;8.75;100.00
31483;BME280;18103;52.246;8.052;2023-11-21T09:39:22;100357.75;;;8.80;100.00
31483;BME280;18103;52.246;8.052;2023-11-21T09:41:58;100354.59;;;8.75;100.00
31483;BME280;18103;52.246;8.052;2023-11-21T09:44:48;100358.81;;;8.78;100.00
31483;BME280;18103;52.246;8.052;2023-11-21T09:47:17;100355.66;;;8.72;100.00
31483;BME280;18103;52.246;8.052;2023-11-21T09:49:49;100360.50;;;8.79;100.00
31483;BME280;18103;52.246;8.052;2023-11-21T09:52:25;100368.91;;;8.84;100.00
31483;BME280;18103;52.246;8.052;2023-11-21T09:54:54;100376.06;;;8.82;100.00
31483;BME280;18103;52.246;8.052;2023-11-21T09:57:23;100376.38;;;8.77;100.00
31483;BME280;18103;52.246;8.052;2023-11-21T09:59:51;100379.56;;;8.69;100.00
31483;BME280;18103;52.246;8.052;2023-11-21T10:02:22;100386.63;;;8.69;100.00
31483;BME280;18103;52.246;8.052;2023-11-21T10:04:53;100389.47;;;8.79;100.00
31483;BME280;18103;52.246;8.052;2023-11-21T10:07:22;100394.81;;;8.77;100.00
31483;BME280;18103;52.246;8.052;2023-11-21T10:09:48;100404.59;;;8.75;100.00
31483;BME280;18103;52.246;8.052;2023-11-21T10:12:15;100400.50;;;8.71;100.00
31483;BME280;18103;52.246;8.052;2023-11-21T10:14:46;100414.19;;;8.76;100.00
31483;BME280;18103;52.246;8.052;2023-11-21T10:17:15;100405.78;;;8.71;100.00
31483;BME280;18103;52.246;8.052;2023-11-21T10:19:46;100411.00;;;8.84;100.00
31483;BME280;18103;52.246;8.052;2023-11-21T10:22:14;100408.50;;;8.82;100.00
31483;BME280;18103;52.246;8.052;2023-11-21T10:24:42;100415.56;;;8.82;100.00
31483;BME280;18103;52.246;8.052;2023-11-21T10:27:10;100415.78;;;8.79;100.00
31483;BME280;18103;52.246;8.052;2023-11-21T10:29:35;100419.88;;;8.83;100.00
31483;BME280;18103;52.246;8.052;2023-11-21T10:32:04;100418.06;;;8.83;100.00
31483;BME280;18103;52.246;8.052;2023-11-21T10:34:32;100423.56;;;8.80;100.00
31483;BME280;18103;52.246;8.052;2023-11-21T10:36:58;100431.56;;;8.79;100.00
31483;BME280;18103;52.246;8.052;2023-11-21T10:39:29;100428.19;;;8.77;100.00
31483;BME280;18103;52.246;8.052;2023-11-21T10:41:56;100433.75;;;8.85;100.00
31483;BME280;18103;52.246;8.052;2023-11-21T10:44:23;100433.66;;;8.73;100.00
31483;BME280;18103;52.246;8.052;2023-11-21T10:46:51;100436.06;;;8.77;100.00
31483;BME280;18103;52.246;8.052;2023-11-21T10:49:20;100444.81;;;8.77;100.00
31483;BME280;18103;52.246;8.052;2023-11-21T10:51:54;100458.28;;;8.85;100.00
31483;BME280;18103;52.246;8.052;2023-11-21T10:54:24;100459.66;;;8.78;100.00
31483;BME280;18103;52.246;8.052;2023-11-21T10:56:56;100458.41;;;8.71;100.00
31483;BME280;18103;52.246;8.052;2023-11-21T10:59:22;100458.63;;;8.68;100.00
31483;BME280;18103;52.246;8.052;2023-11-21T11:01:51;100462.06;;;8.68;100.00
31483;BME280;18103;52.246;8.052;2023-11-21T11:04:20;100461.03;;;8.71;100.00
31483;BME280;18103;52.246;8.052;2023-11-21T11:06:51;100458.41;;;8.58;100.00
31483;BME280;18103;52.246;8.052;2023-11-21T11:09:19;100462.91;;;8.56;100.00
31483;BME280;18103;52.246;8.052;2023-11-21T11:11:46;100461.56;;;8.63;100.00
31483;BME280;18103;52.246;8.052;2023-11-21T11:14:15;100466.19;;;8.60;100.00
31483;BME280;18103;52.246;8.052;2023-11-21T11:16:42;100473.25;;;8.59;100.00
31483;BME280;18103;52.246;8.052;2023-11-21T11:19:09;100474.50;;;8.53;100.00
31483;BME280;18103;52.246;8.052;2023-11-21T11:22:06;100470.81;;;8.56;100.00
31483;BME280;18103;52.246;8.052;2023-11-21T11:27:40;100472.28;;;8.60;100.00
31483;BME280;18103;52.246;8.052;2023-11-21T11:30:32;100468.06;;;8.57;100.00
31483;BME280;18103;52.246;8.052;2023-11-21T11:33:11;100481.97;;;8.60;100.00
31483;BME280;18103;52.246;8.052;2023-11-21T11:36:06;100480.94;;;8.49;100.00
31483;BME280;18103;52.246;8.052;2023-11-21T11:38:33;100489.97;;;8.45;100.00
31483;BME280;18103;52.246;8.052;2023-11-21T11:41:06;100495.63;;;8.52;100.00
31483;BME280;18103;52.246;8.052;2023-11-21T11:43:32;100487.84;;;8.50;100.00
31483;BME280;18103;52.246;8.052;2023-11-21T11:46:10;100489.97;;;8.45;100.00
31483;BME280;18103;52.246;8.052;2023-11-21T11:48:39;100495.84;;;8.49;100.00
31483;BME280;18103;52.246;8.052;2023-11-21T11:51:12;100502.03;;;8.48;100.00
31483;BME280;18103;52.246;8.052;2023-11-21T11:53:41;100510.16;;;8.45;100.00
31483;BME280;18103;52.246;8.052;2023-11-21T11:56:22;100514.63;;;8.30;100.00
31483;BME280;18103;52.246;8.052;2023-11-21T11:58:49;100512.00;;;8.30;100.00
31483;BME280;18103;52.246;8.052;2023-11-21T12:01:18;100516.84;;;8.36;100.00
31483;BME280;18103;52.246;8.052;2023-11-21T12:03:44;100514.09;;;8.37;100.00
31483;BME280;18103;52.246;8.052;2023-11-21T12:06:09;100514.88;;;8.39;100.00
31483;BME280;18103;52.246;8.052;2023-11-21T12:08:37;100508.75;;;8.39;100.00
31483;BME280;18103;52.246;8.052;2023-11-21T12:11:05;100517.88;;;8.33;100.00
31483;BME280;18103;52.246;8.052;2023-11-21T12:13:32;100515.56;;;8.29;100.00
31483;BME280;18103;52.246;8.052;2023-11-21T12:15:58;100518.09;;;8.30;100.00
31483;BME280;18103;52.246;8.052;2023-11-21T12:18:26;100529.88;;;8.25;100.00
31483;BME280;18103;52.246;8.052;2023-11-21T12:20:54;100525.31;;;8.14;100.00
31483;BME280;18103;52.246;8.052;2023-11-21T12:23:19;100532.81;;;8.20;100.00
31483;BME280;18103;52.246;8.052;2023-11-21T12:25:46;100540.97;;;8.15;100.00
31483;BME280;18103;52.246;8.052;2023-11-21T12:28:11;100539.09;;;8.17;100.00
31483;BME280;18103;52.246;8.052;2023-11-21T12:30:39;100551.13;;;8.21;100.00
31483;BME280;18103;52.246;8.052;2023-11-21T12:33:05;100557.50;;;8.17;100.00
31483;BME280;18103;52.246;8.052;2023-11-21T12:35:34;100561.06;;;8.16;100.00
31483;BME280;18103;52.246;8.052;2023-11-21T12:38:03;100570.00;;;8.14;100.00
31483;BME280;18103;52.246;8.052;2023-11-21T12:40:30;100568.75;;;8.19;99.80
31483;BME280;18103;52.246;8.052;2023-11-21T12:42:59;100570.34;;;8.22;99.60
31483;BME280;18103;52.246;8.052;2023-11-21T12:45:29;100574.13;;;8.18;100.00
31483;BME280;18103;52.246;8.052;2023-11-21T12:48:02;100578.00;;;8.12;100.00
31483;BME280;18103;52.246;8.052;2023-11-21T12:50:32;100581.91;;;8.19;100.00
31483;BME280;18103;52.246;8.052;2023-11-21T12:53:19;100588.50;;;8.12;100.00
31483;BME280;18103;52.246;8.052;2023-11-21T12:55:44;100587.66;;;8.12;100.00
31483;BME280;18103;52.246;8.052;2023-11-21T12:58:15;100587.66;;;8.12;99.81
31483;BME280;18103;52.246;8.052;2023-11-21T13:00:46;100588.03;;;8.20;99.22
31483;BME280;18103;52.246;8.052;2023-11-21T13:03:13;100594.94;;;8.21;99.04